sensor_id;sensor_type;location;lat;lon;timestamp;temperature;humidity
33865;DHT22;20159;51.072;13.526;2022-08-02T00:02:18;18.60;76.50
33865;DHT22;20159;51.072;13.526;2022-08-02T00:04:44;18.50;76.80
33865;DHT22;20159;51.072;13.526;2022-08-02T00:07:09;18.50;76.60
33865;DHT22;20159;51.072;13.526;2022-08-02T00:09:35;18.40;76.10
33865;DHT22;20159;51.072;13.526;2022-08-02T00:12:00;18.40;76.50
33865;DHT22;20159;51.072;13.526;2022-08-02T00:14:26;18.40;76.80
33865;DHT22;20159;51.072;13.526;2022-08-02T00:16:51;18.30;77.10
33865;DHT22;20159;51.072;13.526;2022-08-02T00:19:17;18.30;77.00
33865;DHT22;20159;51.072;13.526;2022-08-02T00:21:42;18.20;77.10
33865;DHT22;20159;51.072;13.526;2022-08-02T00:24:08;18.20;77.30
33865;DHT22;20159;51.072;13.526;2022-08-02T00:26:33;18.10;77.30
33865;DHT22;20159;51.072;13.526;2022-08-02T00:28:59;18.10;77.30
33865;DHT22;20159;51.072;13.526;2022-08-02T00:31:24;18.00;77.30
33865;DHT22;20159;51.072;13.526;2022-08-02T00:33:50;18.00;77.90
33865;DHT22;20159;51.072;13.526;2022-08-02T00:36:16;18.00;78.20
33865;DHT22;20159;51.072;13.526;2022-08-02T00:38:41;17.90;78.40
33865;DHT22;20159;51.072;13.526;2022-08-02T00:41:12;17.90;78.70
33865;DHT22;20159;51.072;13.526;2022-08-02T00:43:38;17.90;79.00
33865;DHT22;20159;51.072;13.526;2022-08-02T00:46:03;17.80;78.80
33865;DHT22;20159;51.072;13.526;2022-08-02T00:48:29;17.80;79.00
33865;DHT22;20159;51.072;13.526;2022-08-02T00:50:54;17.80;78.80
33865;DHT22;20159;51.072;13.526;2022-08-02T00:53:21;17.70;78.60
33865;DHT22;20159;51.072;13.526;2022-08-02T00:55:46;17.70;78.70
33865;DHT22;20159;51.072;13.526;2022-08-02T00:58:12;17.70;78.60
33865;DHT22;20159;51.072;13.526;2022-08-02T01:00:37;17.60;78.80
33865;DHT22;20159;51.072;13.526;2022-08-02T01:03:03;17.60;78.60
33865;DHT22;20159;51.072;13.526;2022-08-02T01:05:29;17.50;78.30
33865;DHT22;20159;51.072;13.526;2022-08-02T01:07:54;17.60;79.00
33865;DHT22;20159;51.072;13.526;2022-08-02T01:10:20;17.50;79.10
33865;DHT22;20159;51.072;13.526;2022-08-02T01:12:45;17.50;79.20
33865;DHT22;20159;51.072;13.526;2022-08-02T01:15:12;17.40;79.30
33865;DHT22;20159;51.072;13.526;2022-08-02T01:17:59;17.40;79.30
33865;DHT22;20159;51.072;13.526;2022-08-02T01:29:02;17.30;81.00
33865;DHT22;20159;51.072;13.526;2022-08-02T01:34:25;17.20;79.80
33865;DHT22;20159;51.072;13.526;2022-08-02T01:36:57;17.10;80.50
33865;DHT22;20159;51.072;13.526;2022-08-02T01:39:26;17.10;80.30
33865;DHT22;20159;51.072;13.526;2022-08-02T01:41:52;17.10;81.00
33865;DHT22;20159;51.072;13.526;2022-08-02T01:44:20;17.00;81.00
33865;DHT22;20159;51.072;13.526;2022-08-02T01:46:47;17.00;81.50
33865;DHT22;20159;51.072;13.526;2022-08-02T01:49:16;17.00;81.70
33865;DHT22;20159;51.072;13.526;2022-08-02T01:51:45;17.00;82.00
33865;DHT22;20159;51.072;13.526;2022-08-02T01:54:32;17.00;81.90
33865;DHT22;20159;51.072;13.526;2022-08-02T01:56:58;17.00;81.50
33865;DHT22;20159;51.072;13.526;2022-08-02T01:59:26;17.00;81.80
33865;DHT22;20159;51.072;13.526;2022-08-02T02:01:55;17.00;82.40
33865;DHT22;20159;51.072;13.526;2022-08-02T02:04:28;17.00;82.70
33865;DHT22;20159;51.072;13.526;2022-08-02T02:06:55;17.10;83.30
33865;DHT22;20159;51.072;13.526;2022-08-02T02:09:25;17.10;82.80
33865;DHT22;20159;51.072;13.526;2022-08-02T02:11:52;17.10;82.10
33865;DHT22;20159;51.072;13.526;2022-08-02T02:14:19;17.10;81.90
33865;DHT22;20159;51.072;13.526;2022-08-02T02:16:47;17.10;81.50
33865;DHT22;20159;51.072;13.526;2022-08-02T02:19:16;17.20;81.50
33865;DHT22;20159;51.072;13.526;2022-08-02T02:21:42;17.10;81.80
33865;DHT22;20159;51.072;13.526;2022-08-02T02:24:08;17.10;81.60
33865;DHT22;20159;51.072;13.526;2022-08-02T02:26:35;17.10;81.40
33865;DHT22;20159;51.072;13.526;2022-08-02T02:29:03;17.10;81.10
33865;DHT22;20159;51.072;13.526;2022-08-02T02:31:35;17.10;81.40
33865;DHT22;20159;51.072;13.526;2022-08-02T02:34:07;17.10;82.30
33865;DHT22;20159;51.072;13.526;2022-08-02T02:36:36;17.00;82.00
33865;DHT22;20159;51.072;13.526;2022-08-02T02:39:05;17.00;82.40
33865;DHT22;20159;51.072;13.526;2022-08-02T02:41:31;17.00;82.70
33865;DHT22;20159;51.072;13.526;2022-08-02T02:44:00;17.00;82.80
33865;DHT22;20159;51.072;13.526;2022-08-02T02:46:29;17.00;83.40
33865;DHT22;20159;51.072;13.526;2022-08-02T02:48:56;17.00;83.60
33865;DHT22;20159;51.072;13.526;2022-08-02T02:51:23;17.00;83.80
33865;DHT22;20159;51.072;13.526;2022-08-02T02:53:50;17.00;83.80
33865;DHT22;20159;51.072;13.526;2022-08-02T02:56:17;17.10;83.80
33865;DHT22;20159;51.072;13.526;2022-08-02T02:58:43;17.10;83.60
33865;DHT22;20159;51.072;13.526;2022-08-02T03:01:09;17.10;83.20
33865;DHT22;20159;51.072;13.526;2022-08-02T03:04:00;17.10;83.00
33865;DHT22;20159;51.072;13.526;2022-08-02T03:06:26;17.10;82.80
33865;DHT22;20159;51.072;13.526;2022-08-02T03:08:52;17.10;82.90
33865;DHT22;20159;51.072;13.526;2022-08-02T03:11:18;17.00;82.70
33865;DHT22;20159;51.072;13.526;2022-08-02T03:13:43;17.00;82.20
33865;DHT22;20159;51.072;13.526;2022-08-02T03:16:10;17.00;82.30
33865;DHT22;20159;51.072;13.526;2022-08-02T03:18:40;17.00;82.40
33865;DHT22;20159;51.072;13.526;2022-08-02T03:21:11;16.90;82.60
33865;DHT22;20159;51.072;13.526;2022-08-02T03:23:38;16.90;83.00
33865;DHT22;20159;51.072;13.526;2022-08-02T03:26:05;16.90;83.00
33865;DHT22;20159;51.072;13.526;2022-08-02T03:28:30;16.80;82.80
33865;DHT22;20159;51.072;13.526;2022-08-02T03:30:56;16.80;82.90
33865;DHT22;20159;51.072;13.526;2022-08-02T03:33:23;16.80;83.00
33865;DHT22;20159;51.072;13.526;2022-08-02T03:35:51;16.80;83.00
33865;DHT22;20159;51.072;13.526;2022-08-02T03:38:19;16.80;83.20
33865;DHT22;20159;51.072;13.526;2022-08-02T03:40:46;16.70;83.20
33865;DHT22;20159;51.072;13.526;2022-08-02T03:43:12;16.70;83.70
33865;DHT22;20159;51.072;13.526;2022-08-02T03:45:38;16.70;83.40
33865;DHT22;20159;51.072;13.526;2022-08-02T03:48:06;16.70;83.80
33865;DHT22;20159;51.072;13.526;2022-08-02T03:50:32;16.60;83.60
33865;DHT22;20159;51.072;13.526;2022-08-02T03:52:59;16.70;84.20
33865;DHT22;20159;51.072;13.526;2022-08-02T03:55:25;16.70;84.80
33865;DHT22;20159;51.072;13.526;2022-08-02T03:57:51;16.70;84.50
33865;DHT22;20159;51.072;13.526;2022-08-02T04:00:19;16.70;84.90
33865;DHT22;20159;51.072;13.526;2022-08-02T04:02:45;16.70;85.70
33865;DHT22;20159;51.072;13.526;2022-08-02T04:05:11;16.70;85.70
33865;DHT22;20159;51.072;13.526;2022-08-02T04:07:36;16.80;85.10
33865;DHT22;20159;51.072;13.526;2022-08-02T04:10:03;16.80;85.20
33865;DHT22;20159;51.072;13.526;2022-08-02T04:12:29;16.80;85.70
33865;DHT22;20159;51.072;13.526;2022-08-02T04:14:55;16.90;85.60
33865;DHT22;20159;51.072;13.526;2022-08-02T04:17:22;16.90;85.50
33865;DHT22;20159;51.072;13.526;2022-08-02T04:19:50;17.00;85.20
33865;DHT22;20159;51.072;13.526;2022-08-02T04:22:34;17.10;85.50
33865;DHT22;20159;51.072;13.526;2022-08-02T04:25:04;17.20;85.90
33865;DHT22;20159;51.072;13.526;2022-08-02T04:27:31;17.20;85.50
33865;DHT22;20159;51.072;13.526;2022-08-02T04:30:01;17.30;85.60
33865;DHT22;20159;51.072;13.526;2022-08-02T04:32:27;17.30;85.60
33865;DHT22;20159;51.072;13.526;2022-08-02T04:34:54;17.30;85.40
33865;DHT22;20159;51.072;13.526;2022-08-02T04:37:19;17.40;85.20
33865;DHT22;20159;51.072;13.526;2022-08-02T04:39:45;17.50;85.30
33865;DHT22;20159;51.072;13.526;2022-08-02T04:42:19;17.50;85.40
33865;DHT22;20159;51.072;13.526;2022-08-02T04:44:45;17.60;85.80
33865;DHT22;20159;51.072;13.526;2022-08-02T04:47:11;17.70;85.50
33865;DHT22;20159;51.072;13.526;2022-08-02T04:49:36;17.70;85.60
33865;DHT22;20159;51.072;13.526;2022-08-02T04:52:02;17.80;85.80
33865;DHT22;20159;51.072;13.526;2022-08-02T04:54:27;17.90;85.90
33865;DHT22;20159;51.072;13.526;2022-08-02T04:56:53;18.00;85.80
33865;DHT22;20159;51.072;13.526;2022-08-02T04:59:18;18.10;86.30
33865;DHT22;20159;51.072;13.526;2022-08-02T05:01:44;18.20;85.90
33865;DHT22;20159;51.072;13.526;2022-08-02T05:04:09;18.40;85.90
33865;DHT22;20159;51.072;13.526;2022-08-02T05:06:35;18.50;86.10
33865;DHT22;20159;51.072;13.526;2022-08-02T05:09:09;18.60;85.80
33865;DHT22;20159;51.072;13.526;2022-08-02T05:11:35;18.70;85.80
33865;DHT22;20159;51.072;13.526;2022-08-02T05:14:01;18.90;85.80
33865;DHT22;20159;51.072;13.526;2022-08-02T05:16:26;19.10;85.90
33865;DHT22;20159;51.072;13.526;2022-08-02T05:18:54;19.30;85.20
33865;DHT22;20159;51.072;13.526;2022-08-02T05:21:20;19.40;85.50
33865;DHT22;20159;51.072;13.526;2022-08-02T05:23:45;19.70;85.60
33865;DHT22;20159;51.072;13.526;2022-08-02T05:26:11;19.90;85.20
33865;DHT22;20159;51.072;13.526;2022-08-02T05:28:36;20.20;84.50
33865;DHT22;20159;51.072;13.526;2022-08-02T05:31:02;20.50;83.30
33865;DHT22;20159;51.072;13.526;2022-08-02T05:33:27;20.70;82.20
33865;DHT22;20159;51.072;13.526;2022-08-02T05:35:53;21.10;81.50
33865;DHT22;20159;51.072;13.526;2022-08-02T05:38:19;21.00;80.70
33865;DHT22;20159;51.072;13.526;2022-08-02T05:40:45;22.20;80.90
33865;DHT22;20159;51.072;13.526;2022-08-02T05:43:12;21.30;80.70
33865;DHT22;20159;51.072;13.526;2022-08-02T05:45:38;21.50;80.00
33865;DHT22;20159;51.072;13.526;2022-08-02T05:48:03;21.70;78.90
33865;DHT22;20159;51.072;13.526;2022-08-02T05:50:30;21.90;78.20
33865;DHT22;20159;51.072;13.526;2022-08-02T05:53:22;22.00;78.20
33865;DHT22;20159;51.072;13.526;2022-08-02T05:56:27;22.30;78.80
33865;DHT22;20159;51.072;13.526;2022-08-02T06:01:33;23.10;77.10
33865;DHT22;20159;51.072;13.526;2022-08-02T06:04:02;23.50;76.80
33865;DHT22;20159;51.072;13.526;2022-08-02T06:06:31;23.90;77.10
33865;DHT22;20159;51.072;13.526;2022-08-02T06:09:08;24.40;76.50
33865;DHT22;20159;51.072;13.526;2022-08-02T06:11:38;24.90;72.30
33865;DHT22;20159;51.072;13.526;2022-08-02T06:14:05;25.30;72.20
33865;DHT22;20159;51.072;13.526;2022-08-02T06:16:31;25.60;71.40
33865;DHT22;20159;51.072;13.526;2022-08-02T06:18:58;26.00;70.50
33865;DHT22;20159;51.072;13.526;2022-08-02T06:21:25;26.30;69.00
33865;DHT22;20159;51.072;13.526;2022-08-02T06:23:51;26.50;68.40
33865;DHT22;20159;51.072;13.526;2022-08-02T06:26:18;26.70;67.80
33865;DHT22;20159;51.072;13.526;2022-08-02T06:28:45;26.80;66.70
33865;DHT22;20159;51.072;13.526;2022-08-02T06:31:13;27.00;66.00
33865;DHT22;20159;51.072;13.526;2022-08-02T06:33:39;27.10;65.20
33865;DHT22;20159;51.072;13.526;2022-08-02T06:36:28;27.10;64.70
33865;DHT22;20159;51.072;13.526;2022-08-02T06:39:30;27.10;64.40
33865;DHT22;20159;51.072;13.526;2022-08-02T06:41:58;27.30;64.80
33865;DHT22;20159;51.072;13.526;2022-08-02T06:44:27;27.50;64.40
33865;DHT22;20159;51.072;13.526;2022-08-02T06:46:53;27.70;64.80
33865;DHT22;20159;51.072;13.526;2022-08-02T06:49:18;27.90;63.90
33865;DHT22;20159;51.072;13.526;2022-08-02T06:51:44;28.20;64.30
33865;DHT22;20159;51.072;13.526;2022-08-02T06:54:10;28.40;64.00
33865;DHT22;20159;51.072;13.526;2022-08-02T06:56:35;28.70;63.40
33865;DHT22;20159;51.072;13.526;2022-08-02T06:59:03;29.10;62.80
33865;DHT22;20159;51.072;13.526;2022-08-02T07:01:29;29.40;61.90
33865;DHT22;20159;51.072;13.526;2022-08-02T07:03:54;29.80;63.10
33865;DHT22;20159;51.072;13.526;2022-08-02T07:06:25;30.10;61.80
33865;DHT22;20159;51.072;13.526;2022-08-02T07:08:50;30.50;59.30
33865;DHT22;20159;51.072;13.526;2022-08-02T07:11:16;30.90;59.20
33865;DHT22;20159;51.072;13.526;2022-08-02T07:13:43;31.20;58.80
33865;DHT22;20159;51.072;13.526;2022-08-02T07:16:09;31.60;57.70
33865;DHT22;20159;51.072;13.526;2022-08-02T07:18:35;31.90;57.40
33865;DHT22;20159;51.072;13.526;2022-08-02T07:21:01;32.20;55.60
33865;DHT22;20159;51.072;13.526;2022-08-02T07:23:29;32.50;54.80
33865;DHT22;20159;51.072;13.526;2022-08-02T07:25:55;32.80;52.90
33865;DHT22;20159;51.072;13.526;2022-08-02T07:28:20;33.00;52.20
33865;DHT22;20159;51.072;13.526;2022-08-02T07:30:46;33.10;52.20
33865;DHT22;20159;51.072;13.526;2022-08-02T07:33:11;33.30;51.90
33865;DHT22;20159;51.072;13.526;2022-08-02T07:35:37;33.40;50.90
33865;DHT22;20159;51.072;13.526;2022-08-02T07:38:03;33.50;51.10
33865;DHT22;20159;51.072;13.526;2022-08-02T07:40:28;33.70;51.70
33865;DHT22;20159;51.072;13.526;2022-08-02T07:42:56;33.90;50.40
33865;DHT22;20159;51.072;13.526;2022-08-02T07:45:22;34.10;49.30
33865;DHT22;20159;51.072;13.526;2022-08-02T07:47:48;34.20;49.60
33865;DHT22;20159;51.072;13.526;2022-08-02T07:50:15;34.40;49.40
33865;DHT22;20159;51.072;13.526;2022-08-02T07:52:42;34.60;48.70
33865;DHT22;20159;51.072;13.526;2022-08-02T07:55:09;34.70;48.10
33865;DHT22;20159;51.072;13.526;2022-08-02T07:57:35;34.80;47.90
33865;DHT22;20159;51.072;13.526;2022-08-02T08:00:05;35.00;47.30
33865;DHT22;20159;51.072;13.526;2022-08-02T08:02:31;35.10;46.80
33865;DHT22;20159;51.072;13.526;2022-08-02T08:04:56;35.30;46.40
33865;DHT22;20159;51.072;13.526;2022-08-02T08:07:22;35.30;47.20
33865;DHT22;20159;51.072;13.526;2022-08-02T08:09:48;35.50;46.70
33865;DHT22;20159;51.072;13.526;2022-08-02T08:12:15;35.60;45.30
33865;DHT22;20159;51.072;13.526;2022-08-02T08:14:41;35.70;45.20
33865;DHT22;20159;51.072;13.526;2022-08-02T08:17:07;35.80;45.00
33865;DHT22;20159;51.072;13.526;2022-08-02T08:19:34;35.80;45.00
33865;DHT22;20159;51.072;13.526;2022-08-02T08:21:59;36.00;44.90
33865;DHT22;20159;51.072;13.526;2022-08-02T08:24:29;36.00;44.80
33865;DHT22;20159;51.072;13.526;2022-08-02T08:26:55;36.20;45.20
33865;DHT22;20159;51.072;13.526;2022-08-02T08:29:21;36.30;45.00
33865;DHT22;20159;51.072;13.526;2022-08-02T08:31:47;36.50;44.30
33865;DHT22;20159;51.072;13.526;2022-08-02T08:34:13;36.60;43.70
33865;DHT22;20159;51.072;13.526;2022-08-02T08:36:39;36.80;43.60
33865;DHT22;20159;51.072;13.526;2022-08-02T08:39:05;38.30;43.80
33865;DHT22;20159;51.072;13.526;2022-08-02T08:41:30;36.90;43.50
33865;DHT22;20159;51.072;13.526;2022-08-02T08:43:56;37.00;43.10
33865;DHT22;20159;51.072;13.526;2022-08-02T08:46:31;37.00;43.00
33865;DHT22;20159;51.072;13.526;2022-08-02T08:49:05;37.00;42.10
33865;DHT22;20159;51.072;13.526;2022-08-02T08:51:38;37.10;42.40
33865;DHT22;20159;51.072;13.526;2022-08-02T08:54:06;37.20;42.90
33865;DHT22;20159;51.072;13.526;2022-08-02T08:56:35;37.40;42.40
33865;DHT22;20159;51.072;13.526;2022-08-02T08:59:02;37.60;42.20
33865;DHT22;20159;51.072;13.526;2022-08-02T09:01:28;37.70;41.40
33865;DHT22;20159;51.072;13.526;2022-08-02T09:03:55;37.80;41.20
33865;DHT22;20159;51.072;13.526;2022-08-02T09:06:21;37.90;41.40
33865;DHT22;20159;51.072;13.526;2022-08-02T09:08:47;37.80;40.80
33865;DHT22;20159;51.072;13.526;2022-08-02T09:11:14;37.80;40.60
33865;DHT22;20159;51.072;13.526;2022-08-02T09:13:55;37.80;40.30
33865;DHT22;20159;51.072;13.526;2022-08-02T09:16:34;37.60;39.60
33865;DHT22;20159;51.072;13.526;2022-08-02T09:19:21;37.50;40.00
33865;DHT22;20159;51.072;13.526;2022-08-02T09:21:49;37.30;40.20
33865;DHT22;20159;51.072;13.526;2022-08-02T09:24:17;37.20;41.10
33865;DHT22;20159;51.072;13.526;2022-08-02T09:26:43;37.20;40.30
33865;DHT22;20159;51.072;13.526;2022-08-02T09:29:08;39.20;42.30
33865;DHT22;20159;51.072;13.526;2022-08-02T09:31:34;37.10;41.10
33865;DHT22;20159;51.072;13.526;2022-08-02T09:33:59;37.20;40.40
33865;DHT22;20159;51.072;13.526;2022-08-02T09:36:26;37.20;40.40
33865;DHT22;20159;51.072;13.526;2022-08-02T09:39:00;37.30;39.80
33865;DHT22;20159;51.072;13.526;2022-08-02T09:41:27;37.30;39.30
33865;DHT22;20159;51.072;13.526;2022-08-02T09:43:55;37.20;39.60
33865;DHT22;20159;51.072;13.526;2022-08-02T09:46:25;36.90;39.60
33865;DHT22;20159;51.072;13.526;2022-08-02T09:48:53;36.80;39.60
33865;DHT22;20159;51.072;13.526;2022-08-02T09:51:27;36.60;39.50
33865;DHT22;20159;51.072;13.526;2022-08-02T09:53:59;36.40;39.40
33865;DHT22;20159;51.072;13.526;2022-08-02T09:56:26;36.10;39.20
33865;DHT22;20159;51.072;13.526;2022-08-02T09:58:52;35.80;40.00
33865;DHT22;20159;51.072;13.526;2022-08-02T10:01:31;35.60;40.70
33865;DHT22;20159;51.072;13.526;2022-08-02T10:04:08;35.40;40.50
33865;DHT22;20159;51.072;13.526;2022-08-02T10:06:37;35.30;41.30
33865;DHT22;20159;51.072;13.526;2022-08-02T10:09:04;35.30;41.40
33865;DHT22;20159;51.072;13.526;2022-08-02T10:11:30;35.30;41.60
33865;DHT22;20159;51.072;13.526;2022-08-02T10:13:57;35.50;41.70
33865;DHT22;20159;51.072;13.526;2022-08-02T10:16:23;35.70;41.20
33865;DHT22;20159;51.072;13.526;2022-08-02T10:18:54;35.80;40.90
33865;DHT22;20159;51.072;13.526;2022-08-02T10:21:35;35.80;40.40
33865;DHT22;20159;51.072;13.526;2022-08-02T10:24:12;36.00;40.40
33865;DHT22;20159;51.072;13.526;2022-08-02T10:26:41;36.10;40.70
33865;DHT22;20159;51.072;13.526;2022-08-02T10:29:08;36.20;40.50
33865;DHT22;20159;51.072;13.526;2022-08-02T10:31:40;36.30;40.30
33865;DHT22;20159;51.072;13.526;2022-08-02T10:34:09;36.30;40.50
33865;DHT22;20159;51.072;13.526;2022-08-02T10:36:38;36.60;39.50
33865;DHT22;20159;51.072;13.526;2022-08-02T10:39:04;36.70;39.90
33865;DHT22;20159;51.072;13.526;2022-08-02T10:42:02;36.80;39.40
33865;DHT22;20159;51.072;13.526;2022-08-02T10:44:31;37.00;39.50
33865;DHT22;20159;51.072;13.526;2022-08-02T10:47:20;37.20;38.80
33865;DHT22;20159;51.072;13.526;2022-08-02T10:49:53;37.30;39.90
33865;DHT22;20159;51.072;13.526;2022-08-02T10:52:20;37.50;39.20
33865;DHT22;20159;51.072;13.526;2022-08-02T10:54:56;37.70;39.20
33865;DHT22;20159;51.072;13.526;2022-08-02T10:57:30;38.00;38.60
33865;DHT22;20159;51.072;13.526;2022-08-02T11:00:11;38.10;37.80
33865;DHT22;20159;51.072;13.526;2022-08-02T11:02:41;38.90;38.30
33865;DHT22;20159;51.072;13.526;2022-08-02T11:05:13;38.20;38.00
33865;DHT22;20159;51.072;13.526;2022-08-02T11:07:45;38.20;37.80
33865;DHT22;20159;51.072;13.526;2022-08-02T11:13:07;38.10;37.60
33865;DHT22;20159;51.072;13.526;2022-08-02T11:15:55;38.00;37.00
33865;DHT22;20159;51.072;13.526;2022-08-02T11:18:23;37.90;38.30
33865;DHT22;20159;51.072;13.526;2022-08-02T11:21:25;37.90;37.90
33865;DHT22;20159;51.072;13.526;2022-08-02T11:23:51;37.90;37.50
33865;DHT22;20159;51.072;13.526;2022-08-02T11:28:55;37.60;37.40
33865;DHT22;20159;51.072;13.526;2022-08-02T11:31:21;37.40;37.00
33865;DHT22;20159;51.072;13.526;2022-08-02T11:33:50;37.20;37.00
33865;DHT22;20159;51.072;13.526;2022-08-02T11:36:18;36.90;37.00
33865;DHT22;20159;51.072;13.526;2022-08-02T11:38:44;36.70;37.50
33865;DHT22;20159;51.072;13.526;2022-08-02T11:41:22;36.50;37.70
33865;DHT22;20159;51.072;13.526;2022-08-02T11:43:54;36.40;37.80
33865;DHT22;20159;51.072;13.526;2022-08-02T11:46:20;36.20;38.20
33865;DHT22;20159;51.072;13.526;2022-08-02T11:48:46;36.20;37.90
33865;DHT22;20159;51.072;13.526;2022-08-02T11:53:50;36.30;38.20
33865;DHT22;20159;51.072;13.526;2022-08-02T11:56:25;36.50;38.00
33865;DHT22;20159;51.072;13.526;2022-08-02T11:59:09;36.70;37.70
33865;DHT22;20159;51.072;13.526;2022-08-02T12:01:37;36.90;37.70
33865;DHT22;20159;51.072;13.526;2022-08-02T12:04:04;37.00;37.80
33865;DHT22;20159;51.072;13.526;2022-08-02T12:06:31;37.20;37.20
33865;DHT22;20159;51.072;13.526;2022-08-02T12:09:07;37.20;36.80
33865;DHT22;20159;51.072;13.526;2022-08-02T12:11:33;37.30;36.80
33865;DHT22;20159;51.072;13.526;2022-08-02T12:14:01;37.40;37.50
33865;DHT22;20159;51.072;13.526;2022-08-02T12:16:34;37.40;36.50
33865;DHT22;20159;51.072;13.526;2022-08-02T12:19:19;37.50;36.50
33865;DHT22;20159;51.072;13.526;2022-08-02T12:24:32;37.50;36.40
33865;DHT22;20159;51.072;13.526;2022-08-02T12:26:58;37.60;35.90
33865;DHT22;20159;51.072;13.526;2022-08-02T12:29:34;37.50;35.70
33865;DHT22;20159;51.072;13.526;2022-08-02T12:32:00;37.50;35.90
33865;DHT22;20159;51.072;13.526;2022-08-02T12:34:27;37.30;35.90
33865;DHT22;20159;51.072;13.526;2022-08-02T12:36:58;37.10;36.00
33865;DHT22;20159;51.072;13.526;2022-08-02T12:39:40;37.00;36.30
33865;DHT22;20159;51.072;13.526;2022-08-02T12:42:08;36.90;36.60
33865;DHT22;20159;51.072;13.526;2022-08-02T12:45:06;36.80;36.30
33865;DHT22;20159;51.072;13.526;2022-08-02T12:47:46;36.90;36.50
33865;DHT22;20159;51.072;13.526;2022-08-02T12:50:23;36.90;37.00
33865;DHT22;20159;51.072;13.526;2022-08-02T12:52:49;37.00;36.50
33865;DHT22;20159;51.072;13.526;2022-08-02T12:55:20;37.10;36.70
33865;DHT22;20159;51.072;13.526;2022-08-02T12:57:54;37.30;36.40
33865;DHT22;20159;51.072;13.526;2022-08-02T13:00:35;37.50;36.50
33865;DHT22;20159;51.072;13.526;2022-08-02T13:03:01;37.70;36.70
33865;DHT22;20159;51.072;13.526;2022-08-02T13:05:28;38.00;36.70
33865;DHT22;20159;51.072;13.526;2022-08-02T13:07:54;38.20;36.10
33865;DHT22;20159;51.072;13.526;2022-08-02T13:10:20;38.50;35.90
33865;DHT22;20159;51.072;13.526;2022-08-02T13:12:46;38.70;35.50
33865;DHT22;20159;51.072;13.526;2022-08-02T13:15:12;38.90;35.50
33865;DHT22;20159;51.072;13.526;2022-08-02T13:17:38;39.00;34.70
33865;DHT22;20159;51.072;13.526;2022-08-02T13:20:05;39.10;34.50
33865;DHT22;20159;51.072;13.526;2022-08-02T13:22:31;39.20;34.20
33865;DHT22;20159;51.072;13.526;2022-08-02T13:24:56;39.20;33.80
33865;DHT22;20159;51.072;13.526;2022-08-02T13:27:23;39.20;33.60
33865;DHT22;20159;51.072;13.526;2022-08-02T13:29:49;39.30;33.40
33865;DHT22;20159;51.072;13.526;2022-08-02T13:32:15;39.30;33.80
33865;DHT22;20159;51.072;13.526;2022-08-02T13:34:41;39.40;33.70
33865;DHT22;20159;51.072;13.526;2022-08-02T13:37:06;39.30;33.40
33865;DHT22;20159;51.072;13.526;2022-08-02T13:39:32;39.30;33.60
33865;DHT22;20159;51.072;13.526;2022-08-02T13:41:58;39.30;34.00
33865;DHT22;20159;51.072;13.526;2022-08-02T13:44:23;39.30;33.90
33865;DHT22;20159;51.072;13.526;2022-08-02T13:46:48;39.30;33.70
33865;DHT22;20159;51.072;13.526;2022-08-02T13:49:14;39.30;33.50
33865;DHT22;20159;51.072;13.526;2022-08-02T13:51:40;39.40;33.50
33865;DHT22;20159;51.072;13.526;2022-08-02T13:54:05;39.50;33.70
33865;DHT22;20159;51.072;13.526;2022-08-02T13:56:31;39.60;34.00
33865;DHT22;20159;51.072;13.526;2022-08-02T13:58:56;39.70;33.50
33865;DHT22;20159;51.072;13.526;2022-08-02T14:01:25;39.80;33.50
33865;DHT22;20159;51.072;13.526;2022-08-02T14:03:51;39.90;33.00
33865;DHT22;20159;51.072;13.526;2022-08-02T14:06:21;40.10;33.20
33865;DHT22;20159;51.072;13.526;2022-08-02T14:08:47;40.20;33.00
33865;DHT22;20159;51.072;13.526;2022-08-02T14:11:13;40.40;32.80
33865;DHT22;20159;51.072;13.526;2022-08-02T14:13:38;40.50;33.40
33865;DHT22;20159;51.072;13.526;2022-08-02T14:16:04;40.70;33.00
33865;DHT22;20159;51.072;13.526;2022-08-02T14:18:29;40.80;32.80
33865;DHT22;20159;51.072;13.526;2022-08-02T14:20:55;40.90;32.20
33865;DHT22;20159;51.072;13.526;2022-08-02T14:23:21;41.00;32.10
33865;DHT22;20159;51.072;13.526;2022-08-02T14:25:46;41.00;31.90
33865;DHT22;20159;51.072;13.526;2022-08-02T14:28:12;41.00;31.90
33865;DHT22;20159;51.072;13.526;2022-08-02T14:30:37;41.00;32.10
33865;DHT22;20159;51.072;13.526;2022-08-02T14:33:03;40.90;32.00
33865;DHT22;20159;51.072;13.526;2022-08-02T14:35:29;40.90;32.90
33865;DHT22;20159;51.072;13.526;2022-08-02T14:37:54;40.90;32.00
33865;DHT22;20159;51.072;13.526;2022-08-02T14:40:20;40.90;31.80
33865;DHT22;20159;51.072;13.526;2022-08-02T14:42:45;40.90;31.90
33865;DHT22;20159;51.072;13.526;2022-08-02T14:45:11;40.90;31.80
33865;DHT22;20159;51.072;13.526;2022-08-02T14:47:37;40.90;32.10
33865;DHT22;20159;51.072;13.526;2022-08-02T14:50:03;40.90;31.80
33865;DHT22;20159;51.072;13.526;2022-08-02T14:52:28;40.90;31.60
33865;DHT22;20159;51.072;13.526;2022-08-02T14:54:54;41.00;31.60
33865;DHT22;20159;51.072;13.526;2022-08-02T14:57:20;41.00;32.10
33865;DHT22;20159;51.072;13.526;2022-08-02T14:59:45;41.00;31.90
33865;DHT22;20159;51.072;13.526;2022-08-02T15:02:11;40.90;31.60
33865;DHT22;20159;51.072;13.526;2022-08-02T15:04:37;40.90;31.50
33865;DHT22;20159;51.072;13.526;2022-08-02T15:07:02;40.80;31.30
33865;DHT22;20159;51.072;13.526;2022-08-02T15:09:28;40.70;31.40
33865;DHT22;20159;51.072;13.526;2022-08-02T15:11:53;40.50;31.50
33865;DHT22;20159;51.072;13.526;2022-08-02T15:14:20;40.50;31.50
33865;DHT22;20159;51.072;13.526;2022-08-02T15:16:46;40.40;31.60
33865;DHT22;20159;51.072;13.526;2022-08-02T15:19:11;40.20;31.40
33865;DHT22;20159;51.072;13.526;2022-08-02T15:21:37;40.10;31.50
33865;DHT22;20159;51.072;13.526;2022-08-02T15:24:03;40.10;31.60
33865;DHT22;20159;51.072;13.526;2022-08-02T15:26:28;40.00;31.80
33865;DHT22;20159;51.072;13.526;2022-08-02T15:28:54;39.90;31.80
33865;DHT22;20159;51.072;13.526;2022-08-02T15:31:21;39.90;31.70
33865;DHT22;20159;51.072;13.526;2022-08-02T15:33:47;39.70;32.00
33865;DHT22;20159;51.072;13.526;2022-08-02T15:36:12;39.60;32.20
33865;DHT22;20159;51.072;13.526;2022-08-02T15:38:38;39.40;32.10
33865;DHT22;20159;51.072;13.526;2022-08-02T15:41:03;39.30;32.10
33865;DHT22;20159;51.072;13.526;2022-08-02T15:43:29;39.10;32.20
33865;DHT22;20159;51.072;13.526;2022-08-02T15:45:55;39.00;32.30
33865;DHT22;20159;51.072;13.526;2022-08-02T15:48:20;38.80;32.20